createdAt,value
2023-01-21T00:01:11.278Z,6.30
2023-01-21T00:03:38.957Z,7.20
2023-01-21T00:06:06.993Z,5.40
2023-01-21T00:08:34.902Z,5.20
2023-01-21T00:11:07.552Z,5.60
2023-01-21T00:13:35.750Z,5.70
2023-01-21T00:16:07.379Z,4.60
2023-01-21T00:18:35.159Z,5.20
2023-01-21T00:21:02.822Z,5.30
2023-01-21T00:23:30.725Z,5.00
2023-01-21T00:26:00.149Z,5.40
2023-01-21T00:28:29.469Z,4.60
2023-01-21T00:30:59.289Z,5.30
2023-01-21T00:33:28.409Z,5.10
2023-01-21T00:36:10.941Z,5.10
2023-01-21T00:38:38.901Z,4.10
2023-01-21T00:41:09.954Z,4.80
2023-01-21T00:43:39.339Z,5.50
2023-01-21T00:46:07.908Z,4.70
2023-01-21T00:48:36.454Z,5.20
2023-01-21T00:51:04.645Z,5.20
2023-01-21T00:53:35.893Z,5.00
2023-01-21T00:56:09.313Z,5.10
2023-01-21T00:58:38.051Z,5.20
2023-01-21T01:01:12.543Z,4.80
2023-01-21T01:03:40.838Z,4.80
2023-01-21T01:06:12.531Z,4.20
2023-01-21T01:08:40.700Z,4.50
2023-01-21T01:11:09.000Z,4.70
2023-01-21T01:13:42.698Z,4.70
2023-01-21T01:16:13.383Z,6.00
2023-01-21T01:18:41.141Z,4.80
2023-01-21T01:21:12.729Z,4.80
2023-01-21T01:23:40.750Z,5.00
2023-01-21T01:26:11.715Z,4.60
2023-01-21T01:28:40.239Z,4.70
2023-01-21T01:31:11.145Z,4.00
2023-01-21T01:33:38.925Z,4.30
2023-01-21T01:36:11.850Z,4.90
2023-01-21T01:38:39.573Z,4.10
2023-01-21T01:41:07.877Z,3.90
2023-01-21T01:43:52.574Z,3.90
2023-01-21T01:46:21.670Z,4.70
2023-01-21T01:49:00.600Z,4.10
2023-01-21T01:51:56.046Z,4.70
2023-01-21T01:54:34.954Z,4.60
2023-01-21T01:57:06.806Z,3.80
2023-01-21T01:59:35.164Z,3.50
2023-01-21T02:02:06.999Z,4.10
2023-01-21T02:04:42.383Z,4.00
2023-01-21T02:07:10.742Z,4.50
2023-01-21T02:09:38.448Z,3.50
2023-01-21T02:12:07.227Z,3.30
2023-01-21T02:14:42.695Z,3.80
2023-01-21T02:17:38.799Z,3.70
2023-01-21T02:20:38.555Z,3.80
2023-01-21T02:23:40.399Z,3.50
2023-01-21T02:26:26.754Z,4.00
2023-01-21T02:29:16.506Z,3.20
2023-01-21T02:31:46.877Z,3.40
2023-01-21T02:34:43.200Z,4.00
2023-01-21T02:37:42.706Z,3.30
2023-01-21T02:40:13.963Z,3.40
2023-01-21T02:42:46.334Z,3.40
2023-01-21T02:45:47.430Z,3.60
2023-01-21T02:48:19.942Z,3.50
2023-01-21T02:50:53.297Z,3.70
2023-01-21T02:53:36.902Z,3.10
2023-01-21T02:56:23.488Z,2.80
2023-01-21T02:58:59.437Z,3.40
2023-01-21T03:01:59.119Z,3.30
2023-01-21T03:04:32.891Z,3.80
2023-01-21T03:07:25.591Z,2.70
2023-01-21T03:09:59.180Z,2.80
2023-01-21T03:12:58.695Z,3.10
2023-01-21T03:15:55.263Z,2.80
2023-01-21T03:18:34.257Z,3.00
2023-01-21T03:21:06.961Z,3.40
2023-01-21T03:23:41.753Z,2.80
2023-01-21T03:26:14.023Z,3.00
2023-01-21T03:28:46.801Z,3.20
2023-01-21T03:31:20.686Z,2.70
2023-01-21T03:33:53.174Z,2.90
2023-01-21T03:36:28.825Z,2.70
2023-01-21T03:38:57.859Z,3.20
2023-01-21T03:41:33.551Z,2.70
2023-01-21T03:44:01.202Z,3.30
2023-01-21T03:46:57.511Z,2.90
2023-01-21T03:49:33.518Z,3.50
2023-01-21T03:52:03.732Z,2.40
2023-01-21T03:54:31.850Z,2.70
2023-01-21T03:56:59.521Z,3.40
2023-01-21T03:59:27.170Z,3.10
2023-01-21T04:01:54.817Z,2.80
2023-01-21T04:04:22.499Z,3.00
2023-01-21T04:06:50.115Z,2.70
2023-01-21T04:09:17.773Z,2.50
2023-01-21T04:11:45.429Z,2.70
2023-01-21T04:14:13.085Z,2.80
2023-01-21T04:16:40.801Z,3.00
2023-01-21T04:19:08.765Z,2.60
2023-01-21T04:21:36.440Z,2.60
2023-01-21T04:24:04.511Z,3.30
2023-01-21T04:26:32.084Z,2.90
2023-01-21T04:28:59.700Z,2.80
2023-01-21T04:31:27.312Z,2.90
2023-01-21T04:33:54.969Z,2.60
2023-01-21T04:36:22.657Z,2.80
2023-01-21T04:38:50.228Z,2.40
2023-01-21T04:41:17.894Z,3.50
2023-01-21T04:43:45.521Z,2.60
2023-01-21T04:46:13.268Z,2.50
2023-01-21T04:48:41.056Z,3.00
2023-01-21T04:51:08.760Z,2.70
2023-01-21T04:53:37.133Z,2.60
2023-01-21T04:56:05.083Z,3.00
2023-01-21T04:58:32.705Z,2.80
2023-01-21T05:01:00.358Z,3.90
2023-01-21T05:03:28.029Z,3.20
2023-01-21T05:05:55.632Z,3.40
2023-01-21T05:08:23.290Z,2.70
2023-01-21T05:10:50.927Z,3.40
2023-01-21T05:13:18.582Z,3.30
2023-01-21T05:15:46.183Z,3.60
2023-01-21T05:18:13.844Z,3.20
2023-01-21T05:20:41.478Z,4.00
2023-01-21T05:23:09.103Z,4.00
2023-01-21T05:25:36.723Z,4.20
2023-01-21T05:28:04.458Z,4.00
2023-01-21T05:30:32.084Z,5.10
2023-01-21T05:32:59.716Z,3.60
2023-01-21T05:35:27.347Z,4.60
2023-01-21T05:37:55.020Z,4.60
2023-01-21T05:40:22.734Z,4.50
2023-01-21T05:42:50.318Z,4.30
2023-01-21T05:45:18.104Z,5.30
2023-01-21T05:47:45.757Z,4.40
2023-01-21T05:50:13.610Z,4.20
2023-01-21T05:52:41.306Z,4.90
2023-01-21T05:55:09.030Z,5.70
2023-01-21T05:57:36.780Z,9.30
2023-01-21T06:00:05.561Z,5.60
2023-01-21T06:02:33.338Z,9.50
2023-01-21T06:05:01.158Z,9.60
2023-01-21T06:07:28.757Z,6.60
2023-01-21T06:09:56.397Z,6.10
2023-01-21T06:12:24.932Z,5.50
2023-01-21T06:14:52.807Z,5.70
2023-01-21T06:17:20.463Z,5.30
2023-01-21T06:19:48.189Z,6.20
2023-01-21T06:22:16.837Z,8.10
2023-01-21T06:24:44.785Z,6.90
2023-01-21T06:27:12.462Z,5.70
2023-01-21T06:29:40.091Z,6.60
2023-01-21T06:32:07.922Z,8.20
2023-01-21T06:34:35.580Z,7.00
2023-01-21T06:37:03.374Z,7.60
2023-01-21T06:39:31.027Z,6.30
2023-01-21T06:41:58.689Z,7.10
2023-01-21T06:44:26.328Z,7.20
2023-01-21T06:47:00.745Z,7.50
2023-01-21T06:49:29.109Z,7.90
2023-01-21T06:51:56.822Z,7.70
2023-01-21T06:54:24.722Z,7.60
2023-01-21T06:56:52.584Z,8.10
2023-01-21T06:59:20.232Z,7.40
2023-01-21T07:01:47.953Z,13.50
2023-01-21T07:04:15.753Z,15.90
2023-01-21T07:06:43.372Z,9.40
2023-01-21T07:09:11.157Z,19.20
2023-01-21T07:11:38.785Z,29.30
2023-01-21T07:14:06.416Z,15.80
2023-01-21T07:16:34.077Z,15.70
2023-01-21T07:19:01.716Z,13.00
2023-01-21T07:21:29.449Z,6.90
2023-01-21T07:23:57.236Z,5.60
2023-01-21T07:26:24.858Z,6.10
2023-01-21T07:28:52.497Z,5.90
2023-01-21T07:31:20.184Z,4.60
2023-01-21T07:33:47.960Z,4.20
2023-01-21T07:36:15.574Z,4.70
2023-01-21T07:38:43.310Z,5.30
2023-01-21T07:41:10.945Z,4.70
2023-01-21T07:43:38.602Z,4.40
2023-01-21T07:46:06.387Z,7.60
2023-01-21T07:48:34.043Z,5.80
2023-01-21T07:51:01.777Z,6.00
2023-01-21T07:53:29.441Z,4.20
2023-01-21T07:55:57.071Z,4.30
2023-01-21T07:58:24.793Z,4.00
2023-01-21T08:00:52.425Z,4.20
2023-01-21T08:03:21.929Z,4.70
2023-01-21T08:05:52.024Z,4.90
2023-01-21T08:08:19.642Z,3.50
2023-01-21T08:10:55.381Z,3.90
2023-01-21T08:13:23.957Z,3.90
2023-01-21T08:15:52.942Z,4.30
2023-01-21T08:18:24.506Z,4.90
2023-01-21T08:20:56.801Z,5.30
2023-01-21T08:23:26.038Z,8.60
2023-01-21T08:25:54.221Z,4.70
2023-01-21T08:28:23.188Z,4.00
2023-01-21T08:30:50.845Z,3.20
2023-01-21T08:33:18.592Z,5.30
2023-01-21T08:35:46.268Z,5.90
2023-01-21T08:38:13.900Z,4.40
2023-01-21T08:40:41.525Z,3.80
2023-01-21T08:43:09.168Z,4.20
2023-01-21T08:45:36.884Z,4.00
2023-01-21T08:48:04.718Z,3.20
2023-01-21T08:50:32.331Z,2.80
2023-01-21T08:53:00.624Z,2.90
2023-01-21T08:55:28.317Z,2.50
2023-01-21T08:57:58.285Z,2.90
2023-01-21T09:00:26.166Z,3.20
2023-01-21T09:02:53.832Z,2.80
2023-01-21T09:05:21.613Z,3.20
2023-01-21T09:07:49.321Z,2.60
2023-01-21T09:10:38.498Z,2.40
2023-01-21T09:13:08.539Z,2.30
2023-01-21T09:15:44.368Z,2.00
2023-01-21T09:18:12.141Z,2.00
2023-01-21T09:20:40.092Z,2.00
2023-01-21T09:23:25.079Z,1.50
2023-01-21T09:26:20.536Z,2.50
2023-01-21T09:28:54.247Z,2.60
2023-01-21T09:31:24.309Z,1.70
2023-01-21T09:34:00.792Z,1.50
2023-01-21T09:36:31.583Z,1.50
2023-01-21T09:38:59.679Z,2.00
2023-01-21T09:41:50.318Z,2.20
2023-01-21T09:44:36.985Z,3.50
2023-01-21T09:47:20.537Z,1.50
2023-01-21T09:49:55.658Z,1.50
2023-01-21T09:52:30.053Z,1.40
2023-01-21T09:54:58.742Z,1.20
2023-01-21T09:57:45.119Z,4.20
2023-01-21T10:00:18.888Z,1.40
2023-01-21T10:03:20.425Z,1.60
2023-01-21T10:06:09.328Z,1.20
2023-01-21T10:08:59.235Z,1.20
2023-01-21T10:11:41.269Z,1.20
2023-01-21T10:14:19.760Z,1.50
2023-01-21T10:17:19.326Z,1.10
2023-01-21T10:19:54.995Z,1.00
2023-01-21T10:22:26.787Z,1.10
2023-01-21T10:25:16.398Z,1.30
2023-01-21T10:27:45.545Z,1.10
2023-01-21T10:30:26.767Z,1.20
2023-01-21T10:32:56.267Z,1.20
2023-01-21T10:35:54.789Z,0.90
2023-01-21T10:38:25.118Z,1.10
2023-01-21T10:41:13.888Z,1.50
2023-01-21T10:44:00.475Z,1.10
2023-01-21T10:46:33.785Z,1.10
2023-01-21T10:49:23.189Z,1.00
2023-01-21T10:52:02.898Z,41.80
2023-01-21T10:54:46.409Z,139.60
2023-01-21T10:57:19.835Z,154.20
2023-01-21T10:59:50.039Z,33.60
2023-01-21T11:02:36.648Z,17.40
2023-01-21T11:05:05.333Z,10.40
2023-01-21T11:07:42.370Z,3.40
2023-01-21T11:10:19.834Z,2.80
2023-01-21T11:12:48.748Z,13.70
2023-01-21T11:15:19.950Z,8.90
2023-01-21T11:17:53.593Z,8.90
2023-01-21T11:20:41.710Z,3.70
2023-01-21T11:23:28.219Z,8.20
2023-01-21T11:26:05.290Z,14.50
2023-01-21T11:28:34.433Z,14.30
2023-01-21T11:31:08.408Z,13.50
2023-01-21T11:33:37.375Z,6.10
2023-01-21T11:36:21.299Z,39.80
2023-01-21T11:39:02.080Z,39.20
2023-01-21T11:41:29.948Z,3.10
2023-01-21T11:44:18.053Z,4.90
2023-01-21T11:46:46.084Z,5.30
2023-01-21T11:49:35.482Z,6.40
2023-01-21T11:52:20.531Z,2.00
2023-01-21T11:54:52.005Z,2.40
2023-01-21T11:57:29.615Z,3.20
2023-01-21T12:00:07.609Z,2.60
2023-01-21T12:02:41.387Z,1.10
2023-01-21T12:05:45.206Z,0.90
2023-01-21T12:08:31.061Z,0.90
2023-01-21T12:11:05.116Z,0.80
2023-01-21T12:13:49.173Z,1.10
2023-01-21T12:16:52.961Z,2.90
2023-01-21T12:19:20.596Z,14.20
2023-01-21T12:22:20.152Z,11.30
2023-01-21T12:24:47.733Z,5.90
2023-01-21T12:27:27.791Z,8.70
2023-01-21T12:30:28.256Z,7.80
2023-01-21T12:33:05.263Z,7.40
2023-01-21T12:35:42.294Z,19.00
2023-01-21T12:38:20.527Z,3.50
2023-01-21T12:41:08.293Z,4.80
2023-01-21T12:43:59.527Z,4.50
2023-01-21T12:46:36.929Z,2.40
2023-01-21T12:49:15.362Z,3.40
2023-01-21T12:51:46.555Z,2.30
2023-01-21T12:54:40.959Z,7.50
2023-01-21T12:57:19.294Z,7.30
2023-01-21T12:59:57.011Z,3.40
2023-01-21T13:02:32.298Z,2.50
2023-01-21T13:05:02.905Z,8.90
2023-01-21T13:07:36.501Z,10.90
2023-01-21T13:10:24.728Z,7.60
2023-01-21T13:13:01.096Z,8.10
2023-01-21T13:15:33.379Z,3.40
2023-01-21T13:18:08.506Z,3.80
2023-01-21T13:20:40.477Z,4.20
2023-01-21T13:23:32.295Z,2.50
2023-01-21T13:26:36.275Z,8.30
2023-01-21T13:29:17.597Z,12.90
2023-01-21T13:32:17.239Z,16.30
2023-01-21T13:35:26.105Z,61.60
2023-01-21T13:38:09.794Z,111.00
2023-01-21T13:40:45.310Z,35.80
2023-01-21T13:43:25.299Z,13.80
2023-01-21T13:46:14.671Z,8.90
2023-01-21T13:48:59.516Z,4.60
2023-01-21T13:51:43.820Z,2.90
2023-01-21T13:54:34.940Z,2.80
2023-01-21T13:57:26.867Z,5.50
2023-01-21T14:00:12.659Z,413.70
2023-01-21T14:02:54.009Z,299.60
2023-01-21T14:05:52.513Z,365.80
2023-01-21T14:08:42.822Z,132.60
2023-01-21T14:11:44.493Z,212.00
2023-01-21T14:14:28.053Z,43.80
2023-01-21T14:17:25.529Z,20.10
2023-01-21T14:20:09.593Z,7.30
2023-01-21T14:22:37.248Z,16.20
2023-01-21T14:25:23.915Z,6.00
2023-01-21T14:28:23.331Z,4.00
2023-01-21T14:31:11.031Z,114.90
2023-01-21T14:33:38.748Z,495.50
2023-01-21T14:36:06.631Z,268.00
2023-01-21T14:38:44.713Z,38.20
2023-01-21T14:41:12.829Z,11.40
2023-01-21T14:43:40.863Z,10.30
2023-01-21T14:46:29.268Z,10.60
2023-01-21T14:49:00.816Z,5.60
2023-01-21T14:51:31.812Z,26.00
2023-01-21T14:54:02.756Z,380.30
2023-01-21T14:56:33.048Z,240.00
2023-01-21T14:59:04.930Z,150.60
2023-01-21T15:01:34.811Z,111.40
2023-01-21T15:04:07.624Z,123.70
2023-01-21T15:06:38.992Z,32.20
2023-01-21T15:09:09.168Z,303.00
2023-01-21T15:11:40.519Z,74.80
2023-01-21T15:14:28.582Z,146.70
2023-01-21T15:16:56.820Z,69.80
2023-01-21T15:19:30.505Z,16.50
2023-01-21T15:22:30.019Z,6.30
2023-01-21T15:25:22.092Z,5.00
2023-01-21T15:28:29.015Z,22.00
2023-01-21T15:31:05.902Z,18.40
2023-01-21T15:33:39.178Z,20.00
2023-01-21T15:36:20.157Z,36.80
2023-01-21T15:38:49.692Z,22.00
2023-01-21T15:41:27.451Z,7.60
2023-01-21T15:44:02.386Z,3.60
2023-01-21T15:46:54.216Z,33.20
2023-01-21T15:49:37.706Z,166.30
2023-01-21T15:52:21.250Z,245.10
2023-01-21T15:55:09.061Z,225.80
2023-01-21T15:58:02.437Z,358.10
2023-01-21T16:00:48.525Z,146.30
2023-01-21T16:03:22.047Z,32.10
2023-01-21T16:06:00.724Z,13.00
2023-01-21T16:08:44.304Z,6.80
2023-01-21T16:11:43.892Z,6.90
2023-01-21T16:14:34.385Z,4.10
2023-01-21T16:17:12.683Z,4.60
2023-01-21T16:19:45.352Z,4.60
2023-01-21T16:22:17.655Z,4.20
2023-01-21T16:24:49.703Z,11.00
2023-01-21T16:27:25.218Z,43.00
2023-01-21T16:29:57.573Z,20.40
2023-01-21T16:32:26.960Z,56.20
2023-01-21T16:34:54.615Z,37.30
2023-01-21T16:37:27.801Z,18.00
2023-01-21T16:40:16.621Z,24.70
2023-01-21T16:42:44.992Z,32.60
2023-01-21T16:45:18.017Z,23.90
2023-01-21T16:47:53.359Z,13.40
2023-01-21T16:50:24.053Z,8.90
2023-01-21T16:52:53.509Z,8.90
2023-01-21T16:55:27.378Z,5.60
2023-01-21T16:57:58.115Z,5.60
2023-01-21T17:00:25.703Z,5.60
2023-01-21T17:02:54.808Z,4.90
2023-01-21T17:05:25.595Z,13.50
2023-01-21T17:07:57.442Z,47.40
2023-01-21T17:10:29.095Z,46.10
2023-01-21T17:13:01.430Z,67.70
2023-01-21T17:15:36.174Z,60.30
2023-01-21T17:18:07.037Z,33.60
2023-01-21T17:21:01.269Z,30.60
2023-01-21T17:23:44.856Z,52.60
2023-01-21T17:26:24.047Z,33.90
2023-01-21T17:28:57.243Z,141.60
2023-01-21T17:31:30.808Z,21.40
2023-01-21T17:34:14.500Z,11.30
2023-01-21T17:36:44.637Z,5.10
2023-01-21T17:39:12.464Z,6.40
2023-01-21T17:41:41.618Z,6.10
2023-01-21T17:44:26.155Z,5.40
2023-01-21T17:46:54.438Z,48.80
2023-01-21T17:49:24.400Z,67.60
2023-01-21T17:51:56.507Z,145.60
2023-01-21T17:54:26.496Z,195.50
2023-01-21T17:56:59.323Z,100.20
2023-01-21T17:59:45.819Z,65.50
2023-01-21T18:02:16.910Z,44.60
2023-01-21T18:04:45.151Z,26.60
2023-01-21T18:07:22.428Z,9.90
2023-01-21T18:09:52.429Z,24.10
2023-01-21T18:12:21.731Z,7.00
2023-01-21T18:14:49.328Z,5.50
2023-01-21T18:17:23.744Z,4.70
2023-01-21T18:19:51.713Z,4.70
2023-01-21T18:22:36.149Z,9.00
2023-01-21T18:25:06.488Z,4.70
2023-01-21T18:27:34.387Z,8.20
2023-01-21T18:30:02.441Z,9.20
2023-01-21T18:32:30.104Z,5.60
2023-01-21T18:34:59.722Z,5.80
2023-01-21T18:37:27.423Z,5.50
2023-01-21T18:39:55.049Z,5.50
2023-01-21T18:42:23.512Z,6.40
2023-01-21T18:44:51.165Z,6.40
2023-01-21T18:47:20.380Z,6.10
2023-01-21T18:49:50.704Z,6.30
2023-01-21T18:52:20.206Z,5.90
2023-01-21T18:54:47.963Z,4.80
2023-01-21T18:57:20.053Z,5.30
2023-01-21T18:59:47.955Z,5.10
2023-01-21T19:02:18.618Z,5.00
2023-01-21T19:04:47.272Z,5.60
2023-01-21T19:07:15.498Z,5.90
2023-01-21T19:09:46.156Z,5.10
2023-01-21T19:12:16.450Z,5.20
2023-01-21T19:14:44.941Z,5.00
2023-01-21T19:17:20.269Z,4.50
2023-01-21T19:19:47.931Z,5.20
2023-01-21T19:22:15.854Z,4.80
2023-01-21T19:24:43.974Z,4.60
2023-01-21T19:27:16.445Z,4.80
2023-01-21T19:29:44.088Z,4.90
2023-01-21T19:32:15.035Z,4.40
2023-01-21T19:34:43.031Z,5.10
2023-01-21T19:37:24.247Z,5.00
2023-01-21T19:39:51.834Z,4.70
2023-01-21T19:42:19.508Z,4.70
2023-01-21T19:44:47.117Z,4.30
2023-01-21T19:47:24.763Z,5.20
2023-01-21T19:49:54.407Z,4.70
2023-01-21T19:52:22.269Z,5.10
2023-01-21T19:54:50.164Z,6.50
2023-01-21T19:57:17.954Z,5.40
2023-01-21T19:59:49.511Z,4.50
2023-01-21T20:02:17.283Z,4.50
2023-01-21T20:04:45.220Z,4.70
2023-01-21T20:07:16.710Z,4.80
2023-01-21T20:09:44.655Z,4.70
2023-01-21T20:12:12.812Z,5.50
2023-01-21T20:14:40.478Z,4.70
2023-01-21T20:17:12.391Z,4.70
2023-01-21T20:19:40.376Z,5.00
2023-01-21T20:22:07.980Z,5.20
2023-01-21T20:24:35.636Z,4.70
2023-01-21T20:27:07.737Z,5.00
2023-01-21T20:29:37.762Z,5.20
2023-01-21T20:32:10.106Z,4.70
2023-01-21T20:34:37.836Z,5.30
2023-01-21T20:37:05.590Z,4.60
2023-01-21T20:39:33.331Z,4.50
2023-01-21T20:42:01.082Z,5.10
2023-01-21T20:44:28.696Z,4.30
2023-01-21T20:46:58.570Z,4.50
2023-01-21T20:49:26.153Z,4.50
2023-01-21T20:51:54.210Z,4.40
2023-01-21T20:54:21.989Z,4.80
2023-01-21T20:56:49.597Z,4.50
2023-01-21T20:59:18.327Z,4.20
2023-01-21T21:01:47.057Z,4.50
2023-01-21T21:04:14.690Z,5.10
2023-01-21T21:06:45.669Z,4.80
2023-01-21T21:09:13.407Z,5.00
2023-01-21T21:11:41.005Z,4.40
2023-01-21T21:14:08.672Z,4.90
2023-01-21T21:16:36.354Z,5.20
2023-01-21T21:19:04.224Z,4.80
2023-01-21T21:21:31.952Z,4.80
2023-01-21T21:23:59.628Z,4.80
2023-01-21T21:26:33.146Z,4.70
2023-01-21T21:29:00.790Z,4.80
2023-01-21T21:31:31.878Z,4.90
2023-01-21T21:33:59.671Z,5.30
2023-01-21T21:36:27.347Z,4.60
2023-01-21T21:38:55.925Z,4.60
2023-01-21T21:41:41.937Z,5.00
2023-01-21T21:44:11.006Z,4.70
2023-01-21T21:46:55.503Z,4.80
2023-01-21T21:49:23.533Z,4.60
2023-01-21T21:51:51.758Z,4.20
2023-01-21T21:54:19.503Z,4.60
2023-01-21T21:56:48.039Z,4.40
2023-01-21T21:59:15.916Z,4.60
2023-01-21T22:01:44.551Z,4.40
2023-01-21T22:04:12.495Z,5.30
2023-01-21T22:06:40.298Z,4.30
2023-01-21T22:09:08.333Z,4.50
2023-01-21T22:11:36.149Z,4.50
2023-01-21T22:14:04.373Z,5.90
2023-01-21T22:16:33.410Z,4.20
2023-01-21T22:19:01.703Z,5.40
2023-01-21T22:21:32.661Z,5.20
2023-01-21T22:24:02.472Z,4.40
2023-01-21T22:26:30.390Z,5.00
2023-01-21T22:28:58.523Z,4.80
2023-01-21T22:31:29.562Z,4.20
2023-01-21T22:33:58.978Z,4.90
2023-01-21T22:36:29.672Z,4.80
2023-01-21T22:38:57.758Z,4.10
2023-01-21T22:41:25.766Z,4.10
2023-01-21T22:43:54.182Z,4.00
2023-01-21T22:46:27.046Z,4.40
2023-01-21T22:48:55.169Z,5.00
2023-01-21T22:51:23.603Z,4.00
2023-01-21T22:53:52.709Z,4.20
2023-01-21T22:56:31.457Z,4.10
2023-01-21T22:59:07.814Z,4.80
2023-01-21T23:01:36.436Z,4.40
2023-01-21T23:04:04.385Z,5.00
2023-01-21T23:06:32.099Z,4.50
2023-01-21T23:09:00.476Z,4.60
2023-01-21T23:11:28.060Z,4.80
2023-01-21T23:13:55.719Z,4.00
2023-01-21T23:16:23.761Z,4.60
2023-01-21T23:18:51.750Z,4.20
2023-01-21T23:21:21.587Z,4.40
2023-01-21T23:23:50.282Z,4.50
2023-01-21T23:26:19.225Z,4.40
2023-01-21T23:28:47.258Z,4.50
2023-01-21T23:31:17.273Z,4.70
2023-01-21T23:33:49.510Z,4.20
2023-01-21T23:36:17.948Z,4.20
2023-01-21T23:38:45.631Z,4.50
2023-01-21T23:41:17.073Z,4.60
2023-01-21T23:43:44.732Z,4.80
2023-01-21T23:46:16.683Z,4.90
2023-01-21T23:48:44.404Z,4.70
2023-01-21T23:51:14.634Z,4.20
2023-01-21T23:53:42.515Z,4.40
2023-01-21T23:56:16.106Z,4.00
2023-01-21T23:58:44.152Z,4.60
